Terminal Aerodrome Forecast
Issued by NWS

Home | Current Version | Previous Version | Text Only | Print | Product List | Glossary On
Versions: 1 2 3 4 5 6 7 8 9 10 11 12 13 14 15 16 17 18 19 20 21 22 23 24 25 26 27 28 29 30 31 32 33 34 35 36 37 38 39 40 41 42 43 44 45 46
000
FTAK31 PAFA 202338
TAFAOT
TAF
PAOT 202338Z 2100/2124 21025G35KT 6SM -SHSN BLSN SCT020 OVC035
     FM210300 21030G40KT 6SM -SHSN BLSN BKN025 OVC045
     FM210900 21020G30KT 6SM BLSN BKN035 OVC050
     FM211200 18020G30KT 6SM BLSN BKN035 OVC050
     FM211500 15018KT P6SM BKN025 BKN035 OVC050=

USA.gov is the U.S. government's official web portal to all federal, state and local government web resources and services.